Timeline UpdatesTrip UpdatesNews PostsPvt Posts♥♥Travel TipsAdmin PostsConv PostsFollowed PostsChat RequestsBlog PostsPNR Posts

Disclaimer
Search
 
 
Sun Nov 23, 2014 15:27:14 ISTHomeTrainsΣChainsAtlasPNRForumGalleryNewsFAQTripsMembersLoginFeedback
No Recent News for this Train
Other Trains in the News **new
Latest...
Tr.No.17405 Tirupati-Adilabad Krishna Express is cancelled o­n 26.04.2014
Sat Apr 26, 2014 (03:18PM)
⇐ Return Journey: Train# 17406

17405/Krishna Express

NO Time-Table Change.
Sep 03 2014 (9:35PM)
Change Departure Station:
Change Arrival Station:
Post a Train Travel TipPost a Train Travel Tip **new
Post a Comment/Question/Picture/VideoPost a Comment/Question/Picture/Video
Inaugural Run
Wed Oct 02, 1974
Pantry/Catering
✕ NO Pantry Car
✓ Catering Avbl
Loco/Rake Reversals
SC/Secunderabad Junction (10); MUE/Mudkhed Junction (4);
RSA - Rake Sharing
17405/17406/17409/17410 has RSA.
Rake/Coach Composition
LOCO-SLR-UR-UR-UR-UR-UR-B1-C1-S1-S2-D1-D2-D3-D4-D5-D6-UR-UR-SLR
Loco
TPTY - SC: LGD WAP4/7. SC - ADB: KZJ WDG-3A.
News    PNR    Forum    Time-Table    Availability    Fare Chart    Map    Arr/Dep History    Trips    Gallery    ΣChains    X/O    Timeline    
Travel Time: 2h 33m    6 halts    Distance: 84 km    Avg Speed: 32 km/hr
Type: Mail/Express
Zone: SCR/South Central
Departs @ 18:07 (Avg 1h 14m late)
Platform# 1
SMTWTFS
Jangaon/ZN 
Arrives @ 20:40 (Avg 57m late)
Platform# 6
SMTWTFS
Secunderabad Junction/SC 

6 halts. 11 intermediate Stations between Jangaon and Secunderabad Junction

Show ALL intermediate Stations  

#TrkCodeStation NameX/OArrivesAvgDepartsAvgHaltPFDay#KmSpeedElevZoneAddress
1/==/TPTYTirupati Main (5)  -05:25+1511-652.840150mSCRChittoor Distt, Andhra Pradesh
2/==/RURenigunta Junction (5)X  05:40+2705:42+292m--1-642.963113mSCRChittoor District, Andhra Pradesh
3/==/KHTSri Kalahasti (2)  06:04+3306:05+331m21-619.88268mSCRChittoor District, Andhra Pradesh
4/==/VKIVenkatagiri (3)  06:23+3506:24+361m11-595.37677mSCRNellore District, Andhra Pradesh
5/==/VDDVendodu (2)X  06:37+4006:38+411m--1-578.81955mSCRNellore, Andhra Pradesh
6/==/GDRGudur Junction (3)X  07:40+1707:42+192m21-559.59419mSCRGudur, Andhra Pradesh
7/==/VDEVedayapalem (2)X  08:02+3308:03+341m11-528.37327mSCRNellore, Andhra Pradesh
8/==/NLRNellore (4)  08:09+3608:11+372m21-521.17921mSCRNellore, Andhra Pradesh
9/==/BTTRBitragunta (2)  08:37+4108:38+451m11-486.87015mSCRBitragunta, Andhra Pradesh
10/==/KVZKavali (4)X  08:52+4708:53+501m31-470.39421mSCRKavali, Andhra Pradesh
11/==/SKMSingarayakonda (2)  09:17+5609:18+561m11-432.57226mSCRSingarayakonda, Andhra Pradesh
12/==/TNRTanguturu (3)X  09:26+5709:27+581m--1-422.93710mSCRTanguturu, Andhra Pradesh
13/==/OGLOngole (3)  09:57+4809:58+501m11-404.36412mSCROngole, Andhra Pradesh
14/==/ANBAmmanabrolu (3)O  10:12+5110:13+521m--1-389.47716mSCRAmmanabrolu, Andhra Pradesh
15/==/CJMChinnaganjam (3)XO  10:24+5310:25+541m--1-375.3839mSCRChinna Ganjam, Andhra Pradesh
16/==/VTMVetapalem (3)XO  10:34+5710:35+581m--1-362.8798mSCRVetapalem, Andhra Pradesh
17/==/CLXChirala (4)  10:41+5910:42+1:011m--1-355.0828mSCRChirala, Andhra Pradesh
18/==/BPPBapatla (3)  10:53+1:0410:54+1:061m--1-339.94610mSCRBapatla, Andhra Pradesh
19/==/NDONidubrolu (3)X  11:21+5911:22+1:011m--1-319.3519mSCRNidubrolu, Andhra Pradesh
20/==/TELTenali Junction (5)X  11:48+1:0311:50+1:032m41-297.36516mSCRTel: 08644-227834, Andhra Pradesh
21/==/DIGDuggirala (3)  11:59+4312:00+441m--1-287.68316mSCRDuggirala, Andhra Pradesh
22/==/PVDPeddavadiapudi (3)XO  12:07+4712:08+421m--1-277.91120mSCRKL University to NH 5, Andhra Pradesh
23/==/BZAVijayawada Junction (10)X  13:15+2913:30+2815m101-266.04224mSCRVijayawada 520001, Andhra Pradesh
24/==/KIKondapalli (2)  13:52+2513:53+251m11-250.56735mSCRKondapalli, Andhra Pradesh
25/==/YPErrupalem (2)X  14:15+3914:16+391m--1-225.97757mSCRKhammam Dist., Telangana
26/==/MDRMadhira (2)X  14:28+4014:29+411m21-210.58561mSCRKhammam Dist., Telangana
27/==/BKLBona Kalu (2)  14:41+4614:42+481m21-193.513997mSCRKhammam Dist., Telangana
28/==/KMTKhammam (2)  14:54+5914:56+592m21-165.749118mSCRKhammam 507001, Telangana
29/==/DKJDornakal Junction (3)X  15:24+5415:25+561m11-142.657153mSCRWarangal District, Telangana
30/==/GLAGarla (2)  15:30-15:31-1m21-137.974156mSCRKhammam Dist., Telangana
31/==/MABDMahbubabad (2)  15:47+5815:48+1:021m21-118.281200mSCRWarangal Dist., Telangana
32/==/KDMKesamudram (2)  15:59+1:0416:00+1:061m21-103.377223mSCRWarangal Dist., Telangana
33/==/NKDNekonda (2)  16:12+1:0716:13+1:091m21-87.842236mSCRWarangal Dist., Telangana
34/==/WLWarangal (3)  16:55+1:0116:57+1:072m31-58.129271mSCRWarangal., Telangana
35/==/KZJKazipet Junction (3)X  17:18+1:0417:20+1:082m31-47.957292mSCRWarangal Dist., Telangana
36/==/GNPGhanpur (2)XO  17:41+1:0917:42+1:091m11-28.167344mSCRWarangal Dist. / Enq Ph : 08711 220231, Telangana
37/==/RGPRaghunathpalli (2)O  17:57+1:1017:58+1:111m11-11.385357mSCRWarangal Dist., Telangana
38/==/ZNJangaon (2)»  18:06+1:1418:07+1:141m110.055380mSCRWarangal Dist., Telangana
39/==/PBPPembarti (2)  18:13+1:1318:14+1:131m115.564382mSCRWarangal Dist., Telangana
40/==/ALERAler (2)X  18:23+1:1818:24+1:181m1115.040366mSCRNalgonda Dist., Telangana
41/==/RAGRaigir (2)  18:48-18:49-1m1130.865415mSCRNalgonda, Telangana
42/==/BGBhongir (3)X  18:55+1:1318:56+1:141m2137.370455mSCRNalgonda Dist., Telangana
43/==/CHZCharlapalli (2)X  19:25+1:2719:26+1:281m1171.344523mSCRRangareddy Dist., Telangana
44/==/MLYMoula Ali (2)XO  19:35+1:1819:36+1:161m2178.05520mSCRSecunderabad, Telangana
45/==/SCSecunderabad Junction (10)•XO20:40+5721:10+4130m6183.715539mSCRSecunderabad 500003, Telangana
46/-=|MJFMalkajgiri (3)  21:24+4421:25+441m3187.138535mSCRSecunderabad, Telangana
47|=-|BMOBolarum (3)  21:41+4321:42+441m2197.375597mSCRSecunderabad, Telangana
48|--|MZLMirzapalli (1)  22:29+4822:30+481m11156.081530mSCRMedak Dist., Telangana
49|--|AKEAkanapet (1)  22:38+4822:39+481m11166.873566mSCRMedak District., Telangana
50|--|KMCKamareddi (3)  23:00+5023:02+502m--1192.553528mSCRNizamabad Dist., Telangana
51|--|NZBNizamabad (3)  00:01+3800:05+404m12244.371384mSCRNizamabad, Telangana
52|--|BSXBasar (2)  00:30+3900:32+392m12273.766358mSCRDist Adilabad, Telangana
53|--|DABDharmabad (2)  00:41+4200:42+451m22283.671354mSCRDegaon, Maharashtra
54|--|UMRIUmri (1)XO  01:07+5101:08+521m12313.014381mSCRHuzur Sahib Nanded, Maharashtra
55|--|MUEMudkhed Junction (4)X02:30+5102:40+1:1110m12332.567378mSCRMudkhed, Maharashtra
56|--|BOKRBhokar  02:59+1:1803:00+1:191m12353.756460mSCRBhokar, Maharashtra
57|--|HEMHimayatnagar  03:39+1:1903:40+1:211m--2389.867398mSCRNanded, Maharashtra
58|--|SHSKSahasrakund  03:54+1:2403:55+1:251m--2405.475402mSCRNanded, Maharashtra
59|--|BHBKBodhadi Bujrug  04:19+1:3104:20+1:321m--2435.563357mSCRKinwat, Maharashtra
60|--|KNVTKinwat (2)X  04:34+1:3304:35+1:341m12450.227319mSCRKinwat, Maharashtra
61|--|ADBAdilabad (3)  06:15+6-12495.4-248mSCRAdilabad, Telangana
Scroll to Top
Scroll to Bottom